createdAt,value
2022-12-01T00:00:10.069Z,52.63
2022-12-01T00:03:54.874Z,49.10
2022-12-01T00:07:37.685Z,51.80
2022-12-01T00:11:19.433Z,50.63
2022-12-01T00:15:02.172Z,55.20
2022-12-01T00:18:45.353Z,54.47
2022-12-01T00:22:29.432Z,52.33
2022-12-01T00:26:14.707Z,52.03
2022-12-01T00:29:57.425Z,51.50
2022-12-01T00:33:40.678Z,52.57
2022-12-01T00:37:23.688Z,53.80
2022-12-01T00:41:07.841Z,55.63
2022-12-01T00:44:50.487Z,54.83
2022-12-01T00:48:34.952Z,51.70
2022-12-01T00:52:18.426Z,48.40
2022-12-01T00:56:01.174Z,47.20
2022-12-01T00:59:45.421Z,52.73
2022-12-01T01:03:28.465Z,49.87
2022-12-01T01:07:11.173Z,49.00
2022-12-01T01:10:53.824Z,48.47
2022-12-01T01:14:36.717Z,49.23
2022-12-01T01:18:20.773Z,43.30
2022-12-01T01:22:03.473Z,43.97
2022-12-01T01:25:46.263Z,44.40
2022-12-01T01:29:29.157Z,46.80
2022-12-01T01:33:11.886Z,49.37
2022-12-01T01:36:55.994Z,42.17
2022-12-01T01:40:44.083Z,45.60
2022-12-01T01:44:50.095Z,45.63
2022-12-01T01:48:33.888Z,42.87
2022-12-01T01:52:18.707Z,41.63
2022-12-01T01:56:03.128Z,43.47
2022-12-01T01:59:48.611Z,47.20
2022-12-01T02:03:32.357Z,44.60
2022-12-01T02:07:19.593Z,45.33
2022-12-01T02:11:28.821Z,44.77
2022-12-01T02:15:20.337Z,46.00
2022-12-01T02:19:12.706Z,52.00
2022-12-01T02:23:11.451Z,46.83
2022-12-01T02:27:01.140Z,52.03
2022-12-01T02:30:47.020Z,48.20
2022-12-01T02:34:34.327Z,54.10
2022-12-01T02:38:23.046Z,55.17
2022-12-01T02:42:07.786Z,54.37
2022-12-01T02:45:53.348Z,53.67
2022-12-01T02:49:38.390Z,55.97
2022-12-01T02:53:21.161Z,57.60
2022-12-01T02:57:04.187Z,59.70
2022-12-01T03:00:57.798Z,55.20
2022-12-01T03:04:47.708Z,58.77
2022-12-01T03:08:34.067Z,59.60
2022-12-01T03:12:23.452Z,57.53
2022-12-01T03:16:09.474Z,57.73
2022-12-01T03:19:55.820Z,51.87
2022-12-01T03:23:42.374Z,52.43
2022-12-01T03:27:30.915Z,54.80
2022-12-01T03:31:18.020Z,51.27
2022-12-01T03:35:04.796Z,58.83
2022-12-01T03:38:52.662Z,56.00
2022-12-01T03:42:38.515Z,62.63
2022-12-01T03:46:26.368Z,58.47
2022-12-01T03:50:14.142Z,56.57
2022-12-01T03:54:01.687Z,61.80
2022-12-01T03:57:46.781Z,60.47
2022-12-01T04:01:33.547Z,55.30
2022-12-01T04:05:19.904Z,58.53
2022-12-01T04:09:05.590Z,56.03
2022-12-01T04:12:48.328Z,58.30
2022-12-01T04:16:32.458Z,58.53
2022-12-01T04:20:16.392Z,64.07
2022-12-01T04:24:02.025Z,61.83
2022-12-01T04:27:47.376Z,62.00
2022-12-01T04:31:32.687Z,57.00
2022-12-01T04:35:16.964Z,60.37
2022-12-01T04:38:59.713Z,69.10
2022-12-01T04:42:42.476Z,59.40
2022-12-01T04:46:25.922Z,63.43
2022-12-01T04:50:12.556Z,54.67
2022-12-01T04:53:56.782Z,58.77
2022-12-01T04:57:41.447Z,57.37
2022-12-01T05:01:24.520Z,55.07
2022-12-01T05:05:08.281Z,52.37
2022-12-01T05:08:51.703Z,53.73
2022-12-01T05:12:38.803Z,51.43
2022-12-01T05:16:23.083Z,53.47
2022-12-01T05:20:25.350Z,53.47
2022-12-01T05:24:09.141Z,52.23
2022-12-01T05:27:53.216Z,55.30
2022-12-01T05:31:36.338Z,53.70
2022-12-01T05:35:19.251Z,55.40
2022-12-01T05:39:01.936Z,53.17
2022-12-01T05:42:44.654Z,56.23
2022-12-01T05:46:28.749Z,55.57
2022-12-01T05:50:11.808Z,54.97
2022-12-01T05:53:55.094Z,58.33
2022-12-01T05:57:40.466Z,54.77
2022-12-01T06:01:26.000Z,54.47
2022-12-01T06:05:10.693Z,50.43
2022-12-01T06:08:53.509Z,50.13
2022-12-01T06:12:36.298Z,47.00
2022-12-01T06:16:21.794Z,51.63
2022-12-01T06:20:05.269Z,50.37
2022-12-01T06:23:49.456Z,56.03
2022-12-01T06:27:35.193Z,53.63
2022-12-01T06:31:19.092Z,49.60
2022-12-01T06:35:01.892Z,51.43
2022-12-01T06:38:44.616Z,51.10
2022-12-01T06:42:33.608Z,49.80
2022-12-01T06:46:16.415Z,57.33
2022-12-01T06:50:02.201Z,54.47
2022-12-01T06:53:44.960Z,49.23
2022-12-01T06:57:27.756Z,48.13
2022-12-01T07:01:13.375Z,50.60
2022-12-01T07:04:56.278Z,42.83
2022-12-01T07:08:39.031Z,42.97
2022-12-01T07:12:23.456Z,42.77
2022-12-01T07:16:07.087Z,42.73
2022-12-01T07:19:51.354Z,41.73
2022-12-01T07:23:34.591Z,40.10
2022-12-01T07:27:17.303Z,44.47
2022-12-01T07:31:04.466Z,42.00
2022-12-01T07:34:47.205Z,40.67
2022-12-01T07:38:31.770Z,45.27
2022-12-01T07:42:14.531Z,45.27
2022-12-01T07:45:57.217Z,44.53
2022-12-01T07:49:39.939Z,46.17
2022-12-01T07:53:22.702Z,50.10
2022-12-01T07:57:06.835Z,48.63
2022-12-01T08:00:49.621Z,45.90
2022-12-01T08:04:32.378Z,48.07
2022-12-01T08:08:15.143Z,53.23
2022-12-01T08:11:57.928Z,51.57
2022-12-01T08:15:44.582Z,55.53
2022-12-01T08:19:29.329Z,52.50
2022-12-01T08:23:12.308Z,52.03
2022-12-01T08:26:55.373Z,52.57
2022-12-01T08:30:38.121Z,43.93
2022-12-01T08:34:23.614Z,53.83
2022-12-01T08:38:06.447Z,45.90
2022-12-01T08:41:49.255Z,46.20
2022-12-01T08:45:31.986Z,48.57
2022-12-01T08:49:14.943Z,53.47
2022-12-01T08:53:00.384Z,46.00
2022-12-01T08:56:47.038Z,55.57
2022-12-01T09:00:32.495Z,51.97
2022-12-01T09:04:15.232Z,54.97
2022-12-01T09:08:13.652Z,46.40
2022-12-01T09:11:57.510Z,46.00
2022-12-01T09:15:40.269Z,49.03
2022-12-01T09:19:25.108Z,42.60
2022-12-01T09:23:09.429Z,43.60
2022-12-01T09:26:56.191Z,44.43
2022-12-01T09:30:41.800Z,42.67
2022-12-01T09:34:26.904Z,39.50
2022-12-01T09:38:12.123Z,41.13
2022-12-01T09:41:57.293Z,49.20
2022-12-01T09:45:47.412Z,42.90
2022-12-01T09:49:41.049Z,48.93
2022-12-01T09:53:30.063Z,43.43
2022-12-01T09:57:17.768Z,44.50
2022-12-01T10:01:01.044Z,40.53
2022-12-01T10:04:49.338Z,41.57
2022-12-01T10:08:37.179Z,39.17
2022-12-01T10:12:22.541Z,41.83
2022-12-01T10:16:10.113Z,41.57
2022-12-01T10:19:58.979Z,38.37
2022-12-01T10:24:01.910Z,39.20
2022-12-01T10:27:52.126Z,58.63
2022-12-01T10:31:37.133Z,51.03
2022-12-01T10:35:21.990Z,42.57
2022-12-01T10:39:07.788Z,39.63
2022-12-01T10:42:52.576Z,38.63
2022-12-01T10:46:41.902Z,37.10
2022-12-01T10:50:28.224Z,37.53
2022-12-01T10:54:13.565Z,41.83
2022-12-01T10:57:59.272Z,37.40
2022-12-01T11:01:48.281Z,43.93
2022-12-01T11:05:39.912Z,40.13
2022-12-01T11:09:26.703Z,36.90
2022-12-01T11:13:22.390Z,36.47
2022-12-01T11:17:27.543Z,37.63
2022-12-01T11:21:13.960Z,38.13
2022-12-01T11:25:03.655Z,45.23
2022-12-01T11:28:53.713Z,50.97
2022-12-01T11:32:38.462Z,37.03
2022-12-01T11:36:29.175Z,35.73
2022-12-01T11:40:20.140Z,35.47
2022-12-01T11:44:06.396Z,36.73
2022-12-01T11:48:02.055Z,40.40
2022-12-01T11:51:44.993Z,38.87
2022-12-01T11:55:30.455Z,35.43
2022-12-01T11:59:19.971Z,38.07
2022-12-01T12:03:15.320Z,35.63
2022-12-01T12:07:04.472Z,37.70
2022-12-01T12:10:52.641Z,35.83
2022-12-01T12:14:59.060Z,39.57
2022-12-01T12:18:52.844Z,33.37
2022-12-01T12:22:43.741Z,37.23
2022-12-01T12:26:29.455Z,34.17
2022-12-01T12:30:21.700Z,36.17
2022-12-01T12:34:14.842Z,42.90
2022-12-01T12:38:04.421Z,32.67
2022-12-01T12:41:51.689Z,34.93
2022-12-01T12:45:42.601Z,33.50
2022-12-01T12:49:34.044Z,33.77
2022-12-01T12:53:20.512Z,36.37
2022-12-01T12:57:07.729Z,38.03
2022-12-01T13:00:57.220Z,34.43
2022-12-01T13:04:49.842Z,38.67
2022-12-01T13:08:36.174Z,41.50
2022-12-01T13:12:27.662Z,36.83
2022-12-01T13:16:16.932Z,39.00
2022-12-01T13:19:59.915Z,33.43
2022-12-01T13:23:51.070Z,37.87
2022-12-01T13:27:37.105Z,37.10
2022-12-01T13:31:21.167Z,40.53
2022-12-01T13:35:06.506Z,34.03
2022-12-01T13:38:58.829Z,44.30
2022-12-01T13:42:43.024Z,33.87
2022-12-01T13:46:27.464Z,36.80
2022-12-01T13:50:40.188Z,36.77
2022-12-01T13:54:30.321Z,39.80
2022-12-01T13:58:25.019Z,45.53
2022-12-01T14:02:16.252Z,42.53
2022-12-01T14:06:09.173Z,37.40
2022-12-01T14:09:53.588Z,39.53
2022-12-01T14:13:48.120Z,38.43
2022-12-01T14:17:33.186Z,40.07
2022-12-01T14:21:16.091Z,34.30
2022-12-01T14:24:58.964Z,36.73
2022-12-01T14:29:18.476Z,39.17
2022-12-01T14:33:33.485Z,40.20
2022-12-01T14:37:19.157Z,38.30
2022-12-01T14:41:02.175Z,33.37
2022-12-01T14:44:48.939Z,39.33
2022-12-01T14:48:37.295Z,41.17
2022-12-01T14:52:31.096Z,39.63
2022-12-01T14:56:15.884Z,45.60
2022-12-01T15:00:13.487Z,37.03
2022-12-01T15:03:58.974Z,34.80
2022-12-01T15:07:45.182Z,35.63
2022-12-01T15:11:30.151Z,34.73
2022-12-01T15:15:22.276Z,38.83
2022-12-01T15:19:23.699Z,35.63
2022-12-01T15:23:15.155Z,43.47
2022-12-01T15:27:03.462Z,40.93
2022-12-01T15:30:48.582Z,35.93
2022-12-01T15:34:35.242Z,39.13
2022-12-01T15:38:22.604Z,39.03
2022-12-01T15:42:08.581Z,34.80
2022-12-01T15:45:58.123Z,30.77
2022-12-01T15:49:50.115Z,35.63
2022-12-01T15:53:36.425Z,36.47
2022-12-01T15:57:21.751Z,35.53
2022-12-01T16:01:07.395Z,37.37
2022-12-01T16:04:50.852Z,39.37
2022-12-01T16:08:35.343Z,34.87
2022-12-01T16:12:23.562Z,30.97
2022-12-01T16:16:28.533Z,36.73
2022-12-01T16:20:26.751Z,39.57
2022-12-01T16:24:18.534Z,42.97
2022-12-01T16:28:01.541Z,40.00
2022-12-01T16:32:12.738Z,45.33
2022-12-01T16:35:50.099Z,45.60
2022-12-01T16:39:34.191Z,39.30
2022-12-01T16:43:18.438Z,45.13
2022-12-01T16:47:02.923Z,41.30
2022-12-01T16:50:45.688Z,37.57
2022-12-01T16:54:28.411Z,38.07
2022-12-01T16:58:12.482Z,38.30
2022-12-01T17:01:55.256Z,34.33
2022-12-01T17:05:38.248Z,35.43
2022-12-01T17:09:22.634Z,35.40
2022-12-01T17:13:06.986Z,40.30
2022-12-01T17:16:52.963Z,42.60
2022-12-01T17:20:35.691Z,39.87
2022-12-01T17:24:19.326Z,39.90
2022-12-01T17:28:02.300Z,40.00
2022-12-01T17:31:45.092Z,45.53
2022-12-01T17:35:29.194Z,44.17
2022-12-01T17:39:11.950Z,38.90
2022-12-01T17:42:54.679Z,38.87
2022-12-01T17:46:38.386Z,42.80
2022-12-01T17:50:21.346Z,36.10
2022-12-01T17:54:05.738Z,44.83
2022-12-01T17:57:48.756Z,43.20
2022-12-01T18:01:31.503Z,39.43
2022-12-01T18:05:14.342Z,41.93
2022-12-01T18:08:57.568Z,38.20
2022-12-01T18:12:41.906Z,37.87
2022-12-01T18:16:26.533Z,39.67
2022-12-01T18:20:10.624Z,40.97
2022-12-01T18:23:55.639Z,37.07
2022-12-01T18:27:38.329Z,37.07
2022-12-01T18:31:22.515Z,41.77
2022-12-01T18:35:06.068Z,38.70
2022-12-01T18:38:49.430Z,34.60
2022-12-01T18:42:32.793Z,38.03
2022-12-01T18:46:22.001Z,34.90
2022-12-01T18:50:08.076Z,35.27
2022-12-01T18:53:54.504Z,38.60
2022-12-01T18:57:37.433Z,34.37
2022-12-01T19:01:23.489Z,40.40
2022-12-01T19:05:06.828Z,40.43
2022-12-01T19:08:49.534Z,37.67
2022-12-01T19:12:36.382Z,37.30
2022-12-01T19:16:24.021Z,33.10
2022-12-01T19:20:09.477Z,39.47
2022-12-01T19:23:55.707Z,37.63
2022-12-01T19:27:38.601Z,38.77
2022-12-01T19:31:24.891Z,37.20
2022-12-01T19:35:08.102Z,37.37
2022-12-01T19:38:51.265Z,39.63
2022-12-01T19:42:34.001Z,38.77
2022-12-01T19:46:18.906Z,37.23
2022-12-01T19:50:03.264Z,37.17
2022-12-01T19:53:46.067Z,41.63
2022-12-01T19:57:28.810Z,44.33
2022-12-01T20:01:13.496Z,40.27
2022-12-01T20:04:58.258Z,40.40
2022-12-01T20:08:42.767Z,41.27
2022-12-01T20:12:25.775Z,38.50
2022-12-01T20:16:11.167Z,40.10
2022-12-01T20:19:53.951Z,38.90
2022-12-01T20:23:37.449Z,40.20
2022-12-01T20:27:21.562Z,37.53
2022-12-01T20:31:04.555Z,40.07
2022-12-01T20:34:47.514Z,39.93
2022-12-01T20:38:30.444Z,45.07
2022-12-01T20:42:13.116Z,37.70
2022-12-01T20:45:57.655Z,36.03
2022-12-01T20:49:40.424Z,35.87
2022-12-01T20:53:23.465Z,36.87
2022-12-01T20:57:06.277Z,37.93
2022-12-01T21:00:49.158Z,40.67
2022-12-01T21:04:33.200Z,40.47
2022-12-01T21:08:16.153Z,42.17
2022-12-01T21:12:17.717Z,41.80
2022-12-01T21:16:05.857Z,38.53
2022-12-01T21:19:56.532Z,50.77
2022-12-01T21:23:39.233Z,37.20
2022-12-01T21:27:22.019Z,37.37
2022-12-01T21:31:12.357Z,41.87
2022-12-01T21:35:01.794Z,36.93
2022-12-01T21:38:44.987Z,39.53
2022-12-01T21:42:29.087Z,35.33
2022-12-01T21:46:15.763Z,39.47
2022-12-01T21:50:01.383Z,39.87
2022-12-01T21:53:44.133Z,39.30
2022-12-01T21:57:42.249Z,39.10
2022-12-01T22:01:28.708Z,42.43
2022-12-01T22:05:25.919Z,40.57
2022-12-01T22:09:15.706Z,42.80
2022-12-01T22:12:58.489Z,42.27
2022-12-01T22:16:42.695Z,41.63
2022-12-01T22:20:26.930Z,37.97
2022-12-01T22:24:21.828Z,41.73
2022-12-01T22:28:11.497Z,36.33
2022-12-01T22:32:06.000Z,44.50
2022-12-01T22:35:51.407Z,37.57
2022-12-01T22:39:34.381Z,38.87
2022-12-01T22:43:36.276Z,38.97
2022-12-01T22:47:19.075Z,37.20
2022-12-01T22:51:16.949Z,38.97
2022-12-01T22:54:59.625Z,35.93
2022-12-01T22:58:42.508Z,39.07
2022-12-01T23:02:26.424Z,37.77
2022-12-01T23:06:56.050Z,39.87
2022-12-01T23:10:41.558Z,44.50
2022-12-01T23:14:24.883Z,38.83
2022-12-01T23:18:13.387Z,43.53
2022-12-01T23:21:57.491Z,41.80
2022-12-01T23:25:41.110Z,43.33
2022-12-01T23:29:24.051Z,41.90
2022-12-01T23:33:18.207Z,44.80
2022-12-01T23:37:02.497Z,44.40
2022-12-01T23:40:45.374Z,43.27
2022-12-01T23:44:38.596Z,41.33
2022-12-01T23:48:23.277Z,44.43
2022-12-01T23:52:12.214Z,38.00
2022-12-01T23:55:55.229Z,40.63
2022-12-01T23:59:38.743Z,45.03
